createdAt,value
2023-01-18T00:01:14.331Z,15.80
2023-01-18T00:03:42.128Z,20.17
2023-01-18T00:06:10.591Z,19.53
2023-01-18T00:08:38.704Z,14.03
2023-01-18T00:11:07.864Z,16.60
2023-01-18T00:13:34.887Z,16.80
2023-01-18T00:16:11.174Z,16.77
2023-01-18T00:18:37.915Z,19.73
2023-01-18T00:21:07.097Z,17.83
2023-01-18T00:23:34.373Z,17.00
2023-01-18T00:26:02.136Z,18.63
2023-01-18T00:28:28.741Z,20.97
2023-01-18T00:30:55.834Z,15.30
2023-01-18T00:33:28.960Z,21.67
2023-01-18T00:36:00.650Z,17.63
2023-01-18T00:38:28.139Z,18.67
2023-01-18T00:40:57.941Z,19.40
2023-01-18T00:43:39.609Z,15.73
2023-01-18T00:46:11.088Z,17.17
2023-01-18T00:48:41.531Z,17.63
2023-01-18T00:51:10.384Z,17.50
2023-01-18T00:53:40.279Z,18.20
2023-01-18T00:56:09.078Z,15.87
2023-01-18T00:58:37.377Z,17.50
2023-01-18T01:01:08.082Z,15.40
2023-01-18T01:03:54.768Z,17.93
2023-01-18T01:06:44.276Z,17.53
2023-01-18T01:09:24.812Z,18.00
2023-01-18T01:12:11.129Z,17.00
2023-01-18T01:14:59.892Z,16.50
2023-01-18T01:17:47.641Z,18.37
2023-01-18T01:20:33.125Z,15.90
2023-01-18T01:23:29.949Z,21.17
2023-01-18T01:26:08.679Z,19.47
2023-01-18T01:28:40.456Z,17.43
2023-01-18T01:31:09.851Z,19.80
2023-01-18T01:33:37.114Z,18.90
2023-01-18T01:36:10.120Z,17.83
2023-01-18T01:38:37.140Z,21.57
2023-01-18T01:41:13.449Z,19.17
2023-01-18T01:43:42.994Z,17.90
2023-01-18T01:46:20.903Z,19.43
2023-01-18T01:48:48.816Z,19.60
2023-01-18T01:51:18.447Z,20.70
2023-01-18T01:53:48.432Z,20.57
2023-01-18T01:56:15.684Z,20.47
2023-01-18T01:58:43.327Z,19.17
2023-01-18T02:01:10.115Z,17.47
2023-01-18T02:03:40.200Z,18.23
2023-01-18T02:06:16.319Z,18.13
2023-01-18T02:08:47.179Z,18.17
2023-01-18T02:11:13.773Z,20.43
2023-01-18T02:13:40.433Z,15.87
2023-01-18T02:16:34.038Z,17.63
2023-01-18T02:19:36.455Z,17.10
2023-01-18T02:22:44.488Z,18.13
2023-01-18T02:25:49.793Z,15.13
2023-01-18T02:28:21.138Z,17.30
2023-01-18T02:30:58.483Z,16.47
2023-01-18T02:33:33.055Z,17.67
2023-01-18T02:36:04.017Z,15.27
2023-01-18T02:38:45.917Z,17.77
2023-01-18T02:42:00.901Z,18.27
2023-01-18T02:44:51.244Z,14.50
2023-01-18T02:47:18.032Z,16.20
2023-01-18T02:49:44.647Z,15.70
2023-01-18T02:52:38.244Z,17.33
2023-01-18T02:55:06.962Z,17.67
2023-01-18T02:57:34.214Z,17.23
2023-01-18T03:00:03.528Z,16.80
2023-01-18T03:02:30.338Z,18.27
2023-01-18T03:04:57.112Z,17.47
2023-01-18T03:07:32.910Z,19.50
2023-01-18T03:10:02.455Z,18.90
2023-01-18T03:12:46.401Z,17.63
2023-01-18T03:15:27.853Z,19.60
2023-01-18T03:17:58.158Z,18.80
2023-01-18T03:20:30.306Z,15.23
2023-01-18T03:23:34.753Z,18.73
2023-01-18T03:26:04.352Z,18.53
2023-01-18T03:29:01.714Z,18.53
2023-01-18T03:32:15.253Z,18.67
2023-01-18T03:35:08.298Z,18.03
2023-01-18T03:37:41.041Z,19.57
2023-01-18T03:40:15.547Z,16.33
2023-01-18T03:42:50.224Z,16.47
2023-01-18T03:45:48.537Z,15.77
2023-01-18T03:48:15.753Z,13.53
2023-01-18T03:51:06.752Z,12.83
2023-01-18T03:53:55.481Z,12.00
2023-01-18T03:56:32.918Z,13.90
2023-01-18T03:59:04.469Z,16.73
2023-01-18T04:01:31.804Z,14.23
2023-01-18T04:03:58.470Z,13.57
2023-01-18T04:06:25.670Z,12.47
2023-01-18T04:08:52.729Z,10.83
2023-01-18T04:11:19.593Z,11.17
2023-01-18T04:13:46.276Z,14.13
2023-01-18T04:16:12.914Z,10.60
2023-01-18T04:18:39.568Z,13.50
2023-01-18T04:21:06.206Z,14.20
2023-01-18T04:23:32.988Z,13.63
2023-01-18T04:25:59.548Z,12.70
2023-01-18T04:28:26.184Z,13.87
2023-01-18T04:30:54.607Z,22.67
2023-01-18T04:33:22.614Z,14.67
2023-01-18T04:35:50.129Z,11.93
2023-01-18T04:38:16.773Z,10.70
2023-01-18T04:40:43.376Z,14.67
2023-01-18T04:43:10.100Z,14.23
2023-01-18T04:45:36.785Z,14.77
2023-01-18T04:48:03.848Z,14.90
2023-01-18T04:50:30.502Z,16.83
2023-01-18T04:52:58.397Z,15.17
2023-01-18T04:55:25.272Z,14.17
2023-01-18T04:57:59.261Z,17.07
2023-01-18T05:00:25.966Z,14.10
2023-01-18T05:02:52.592Z,15.17
2023-01-18T05:05:19.238Z,17.60
2023-01-18T05:07:46.014Z,16.57
2023-01-18T05:10:13.019Z,16.40
2023-01-18T05:12:39.667Z,16.53
2023-01-18T05:15:06.853Z,16.40
2023-01-18T05:17:35.127Z,18.40
2023-01-18T05:20:04.338Z,17.60
2023-01-18T05:22:32.913Z,16.37
2023-01-18T05:24:59.924Z,17.90
2023-01-18T05:27:26.581Z,15.97
2023-01-18T05:29:53.322Z,21.47
2023-01-18T05:32:20.092Z,16.10
2023-01-18T05:34:46.717Z,18.37
2023-01-18T05:37:13.374Z,16.23
2023-01-18T05:39:39.983Z,17.63
2023-01-18T05:42:06.817Z,17.97
2023-01-18T05:44:33.471Z,15.43
2023-01-18T05:47:00.221Z,15.57
2023-01-18T05:49:28.336Z,16.80
2023-01-18T05:51:54.916Z,18.97
2023-01-18T05:54:21.524Z,18.00
2023-01-18T05:56:48.128Z,15.73
2023-01-18T05:59:15.558Z,19.20
2023-01-18T06:01:42.795Z,17.60
2023-01-18T06:04:09.760Z,18.67
2023-01-18T06:06:36.349Z,19.57
2023-01-18T06:09:03.483Z,19.20
2023-01-18T06:11:30.396Z,18.43
2023-01-18T06:13:57.029Z,16.20
2023-01-18T06:16:24.536Z,19.13
2023-01-18T06:18:51.323Z,16.23
2023-01-18T06:21:18.764Z,17.13
2023-01-18T06:23:45.373Z,19.17
2023-01-18T06:26:12.003Z,22.17
2023-01-18T06:28:38.642Z,17.47
2023-01-18T06:31:08.118Z,17.10
2023-01-18T06:33:34.860Z,16.23
2023-01-18T06:36:01.675Z,20.23
2023-01-18T06:38:29.619Z,17.30
2023-01-18T06:40:56.236Z,21.53
2023-01-18T06:43:23.005Z,20.10
2023-01-18T06:45:56.358Z,21.87
2023-01-18T06:48:26.602Z,21.23
2023-01-18T06:50:56.749Z,18.73
2023-01-18T06:53:23.520Z,19.90
2023-01-18T06:56:01.675Z,19.27
2023-01-18T06:58:31.033Z,18.47
2023-01-18T07:00:59.387Z,19.53
2023-01-18T07:03:27.664Z,20.93
2023-01-18T07:05:58.729Z,19.20
2023-01-18T07:08:26.909Z,15.93
2023-01-18T07:10:54.169Z,19.27
2023-01-18T07:13:21.884Z,21.93
2023-01-18T07:15:57.987Z,17.27
2023-01-18T07:18:26.283Z,19.00
2023-01-18T07:21:01.076Z,18.00
2023-01-18T07:23:29.014Z,19.83
2023-01-18T07:26:06.603Z,18.63
2023-01-18T07:28:34.323Z,20.37
2023-01-18T07:31:01.473Z,17.33
2023-01-18T07:33:28.628Z,21.30
2023-01-18T07:35:57.115Z,20.20
2023-01-18T07:38:24.917Z,19.03
2023-01-18T07:40:57.446Z,18.07
2023-01-18T07:43:24.168Z,17.27
2023-01-18T07:45:54.399Z,20.07
2023-01-18T07:48:21.862Z,22.60
2023-01-18T07:50:55.424Z,20.33
2023-01-18T07:53:22.638Z,21.30
2023-01-18T07:55:49.779Z,19.10
2023-01-18T07:58:17.472Z,18.43
2023-01-18T08:00:45.023Z,22.30
2023-01-18T08:03:16.550Z,18.73
2023-01-18T08:05:44.418Z,19.83
2023-01-18T08:08:13.045Z,17.37
2023-01-18T08:10:40.336Z,22.77
2023-01-18T08:13:10.798Z,19.60
2023-01-18T08:15:40.620Z,21.43
2023-01-18T08:18:08.185Z,21.40
2023-01-18T08:20:34.849Z,21.50
2023-01-18T08:23:02.488Z,21.13
2023-01-18T08:25:31.528Z,18.97
2023-01-18T08:27:59.727Z,20.77
2023-01-18T08:30:31.558Z,17.13
2023-01-18T08:33:00.553Z,18.73
2023-01-18T08:35:29.972Z,18.33
2023-01-18T08:37:56.687Z,17.23
2023-01-18T08:40:23.695Z,16.77
2023-01-18T08:42:50.334Z,18.03
2023-01-18T08:45:17.754Z,19.07
2023-01-18T08:47:44.359Z,18.50
2023-01-18T08:50:13.825Z,19.77
2023-01-18T08:52:40.600Z,21.33
2023-01-18T08:55:07.847Z,16.50
2023-01-18T08:57:34.538Z,17.60
2023-01-18T09:00:04.224Z,16.43
2023-01-18T09:02:30.892Z,17.77
2023-01-18T09:04:58.153Z,21.23
2023-01-18T09:07:24.736Z,20.13
2023-01-18T09:09:51.369Z,17.83
2023-01-18T09:12:18.207Z,21.77
2023-01-18T09:14:44.921Z,20.30
2023-01-18T09:17:11.554Z,18.97
2023-01-18T09:19:38.135Z,19.77
2023-01-18T09:22:06.268Z,21.80
2023-01-18T09:24:33.184Z,16.17
2023-01-18T09:26:59.801Z,17.50
2023-01-18T09:29:26.374Z,16.40
2023-01-18T09:31:54.200Z,17.33
2023-01-18T09:34:21.674Z,20.90
2023-01-18T09:36:52.288Z,18.83
2023-01-18T09:39:20.187Z,16.70
2023-01-18T09:41:56.299Z,18.77
2023-01-18T09:44:35.921Z,17.63
2023-01-18T09:47:24.833Z,19.20
2023-01-18T09:49:57.351Z,17.33
2023-01-18T09:52:40.587Z,20.07
2023-01-18T09:55:33.133Z,15.77
2023-01-18T09:58:37.972Z,19.23
2023-01-18T10:01:19.518Z,19.67
2023-01-18T10:03:53.731Z,19.53
2023-01-18T10:06:30.222Z,21.20
2023-01-18T10:09:07.561Z,16.60
2023-01-18T10:11:47.338Z,16.07
2023-01-18T10:15:04.335Z,20.03
2023-01-18T10:17:38.297Z,17.47
2023-01-18T10:20:16.993Z,18.93
2023-01-18T10:22:49.913Z,16.93
2023-01-18T10:25:34.942Z,18.37
2023-01-18T10:28:11.532Z,15.23
2023-01-18T10:30:55.650Z,17.43
2023-01-18T10:33:25.697Z,17.80
2023-01-18T10:35:57.215Z,17.73
2023-01-18T10:38:28.331Z,21.70
2023-01-18T10:41:00.314Z,17.43
2023-01-18T10:43:29.306Z,16.20
2023-01-18T10:45:56.269Z,16.87
2023-01-18T10:48:32.612Z,19.17
2023-01-18T10:51:01.956Z,15.90
2023-01-18T10:53:35.085Z,17.17
2023-01-18T10:56:09.335Z,20.17
2023-01-18T10:58:50.320Z,18.10
2023-01-18T11:01:27.588Z,16.10
2023-01-18T11:04:05.653Z,15.27
2023-01-18T11:06:44.591Z,15.80
2023-01-18T11:09:39.432Z,14.07
2023-01-18T11:12:37.549Z,19.07
2023-01-18T11:15:13.334Z,18.00
2023-01-18T11:17:44.924Z,16.43
2023-01-18T11:20:25.561Z,19.67
2023-01-18T11:23:00.450Z,18.63
2023-01-18T11:25:39.611Z,16.73
2023-01-18T11:28:27.428Z,17.43
2023-01-18T11:31:07.422Z,18.67
2023-01-18T11:33:34.705Z,20.37
2023-01-18T11:36:02.797Z,18.13
2023-01-18T11:38:33.694Z,17.73
2023-01-18T11:41:15.252Z,17.13
2023-01-18T11:43:58.582Z,15.47
2023-01-18T11:46:40.664Z,15.20
2023-01-18T11:49:29.278Z,14.83
2023-01-18T11:52:09.061Z,18.20
2023-01-18T11:54:41.651Z,16.97
2023-01-18T11:57:12.356Z,14.60
2023-01-18T11:59:45.502Z,16.73
2023-01-18T12:02:24.171Z,14.40
2023-01-18T12:05:30.944Z,15.97
2023-01-18T12:08:15.625Z,15.87
2023-01-18T12:11:03.939Z,15.30
2023-01-18T12:13:50.215Z,16.43
2023-01-18T12:16:48.501Z,15.53
2023-01-18T12:19:41.694Z,15.57
2023-01-18T12:22:38.947Z,17.50
2023-01-18T12:25:39.549Z,18.13
2023-01-18T12:28:28.078Z,17.00
2023-01-18T12:31:06.736Z,15.73
2023-01-18T12:33:44.247Z,14.97
2023-01-18T12:36:55.347Z,16.00
2023-01-18T12:39:54.010Z,13.17
2023-01-18T12:42:40.279Z,14.27
2023-01-18T12:45:15.939Z,14.63
2023-01-18T12:47:51.784Z,15.23
2023-01-18T12:50:25.693Z,16.77
2023-01-18T12:52:57.579Z,15.27
2023-01-18T12:55:28.393Z,13.80
2023-01-18T12:58:01.297Z,19.10
2023-01-18T13:00:40.141Z,16.33
2023-01-18T13:03:13.454Z,15.30
2023-01-18T13:05:55.382Z,18.73
2023-01-18T13:08:36.456Z,14.47
2023-01-18T13:11:08.964Z,14.70
2023-01-18T13:13:36.414Z,18.27
2023-01-18T13:16:19.120Z,15.77
2023-01-18T13:18:59.410Z,11.90
2023-01-18T13:21:40.025Z,8.83
2023-01-18T13:24:27.884Z,14.80
2023-01-18T13:27:09.765Z,23.07
2023-01-18T13:29:36.806Z,11.90
2023-01-18T13:32:03.852Z,19.13
2023-01-18T13:34:47.319Z,16.13
2023-01-18T13:37:42.736Z,15.37
2023-01-18T13:40:37.499Z,12.47
2023-01-18T13:43:06.023Z,14.23
2023-01-18T13:45:52.909Z,12.50
2023-01-18T13:48:41.382Z,14.17
2023-01-18T13:51:11.812Z,12.50
2023-01-18T13:53:49.785Z,17.63
2023-01-18T13:56:31.410Z,14.33
2023-01-18T13:59:04.422Z,12.30
2023-01-18T14:01:36.533Z,13.43
2023-01-18T14:04:21.881Z,10.70
2023-01-18T14:06:49.602Z,9.77
2023-01-18T14:09:18.411Z,12.37
2023-01-18T14:11:54.295Z,15.73
2023-01-18T14:14:20.887Z,10.30
2023-01-18T14:17:23.680Z,10.37
2023-01-18T14:19:59.984Z,9.67
2023-01-18T14:22:33.331Z,7.37
2023-01-18T14:25:28.508Z,8.80
2023-01-18T14:28:07.912Z,13.40
2023-01-18T14:30:37.457Z,7.40
2023-01-18T14:33:15.917Z,10.73
2023-01-18T14:36:00.804Z,12.23
2023-01-18T14:38:29.181Z,8.57
2023-01-18T14:40:59.535Z,11.90
2023-01-18T14:43:41.086Z,8.90
2023-01-18T14:46:21.352Z,11.60
2023-01-18T14:48:57.059Z,9.63
2023-01-18T14:51:26.467Z,10.63
2023-01-18T14:53:57.786Z,12.50
2023-01-18T14:56:30.189Z,11.70
2023-01-18T14:58:59.695Z,10.80
2023-01-18T15:01:38.877Z,9.03
2023-01-18T15:04:18.304Z,11.93
2023-01-18T15:06:55.191Z,9.77
2023-01-18T15:09:23.296Z,12.57
2023-01-18T15:11:52.316Z,13.70
2023-01-18T15:14:29.067Z,12.03
2023-01-18T15:16:58.620Z,11.83
2023-01-18T15:19:41.838Z,9.03
2023-01-18T15:22:13.153Z,11.60
2023-01-18T15:24:41.657Z,11.67
2023-01-18T15:27:18.904Z,11.27
2023-01-18T15:29:53.507Z,13.53
2023-01-18T15:32:22.425Z,12.03
2023-01-18T15:34:51.359Z,10.97
2023-01-18T15:37:30.341Z,12.00
2023-01-18T15:39:57.667Z,11.03
2023-01-18T15:42:39.369Z,10.33
2023-01-18T15:45:21.691Z,11.63
2023-01-18T15:47:52.040Z,11.77
2023-01-18T15:50:20.235Z,14.30
2023-01-18T15:52:53.803Z,12.53
2023-01-18T15:55:30.245Z,11.47
2023-01-18T15:58:03.128Z,14.43
2023-01-18T16:00:42.452Z,11.37
2023-01-18T16:03:36.943Z,12.50
2023-01-18T16:06:11.034Z,12.47
2023-01-18T16:08:59.523Z,15.33
2023-01-18T16:11:41.246Z,12.97
2023-01-18T16:14:38.212Z,12.47
2023-01-18T16:17:14.345Z,15.93
2023-01-18T16:19:49.779Z,13.73
2023-01-18T16:22:29.631Z,14.20
2023-01-18T16:25:18.255Z,12.97
2023-01-18T16:27:57.141Z,12.30
2023-01-18T16:30:39.328Z,11.40
2023-01-18T16:33:13.237Z,11.40
2023-01-18T16:35:41.767Z,14.10
2023-01-18T16:38:12.901Z,12.80
2023-01-18T16:40:42.904Z,15.17
2023-01-18T16:43:20.034Z,16.73
2023-01-18T16:45:49.272Z,14.80
2023-01-18T16:48:18.702Z,13.30
2023-01-18T16:50:45.989Z,12.53
2023-01-18T16:53:13.469Z,10.53
2023-01-18T16:55:40.695Z,11.90
2023-01-18T16:58:07.381Z,10.43
2023-01-18T17:00:41.888Z,11.43
2023-01-18T17:03:08.678Z,11.97
2023-01-18T17:05:35.350Z,13.33
2023-01-18T17:08:02.325Z,14.33
2023-01-18T17:10:35.115Z,11.37
2023-01-18T17:13:02.719Z,12.03
2023-01-18T17:18:25.560Z,15.50
2023-01-18T17:20:53.394Z,13.40
2023-01-18T17:23:20.739Z,13.70
2023-01-18T17:25:47.385Z,14.47
2023-01-18T17:28:15.555Z,13.20
2023-01-18T17:30:49.397Z,13.13
2023-01-18T17:33:31.566Z,14.63
2023-01-18T17:35:58.428Z,14.60
2023-01-18T17:38:28.828Z,13.87
2023-01-18T17:40:57.666Z,11.70
2023-01-18T17:43:39.583Z,15.77
2023-01-18T17:46:06.849Z,15.93
2023-01-18T17:48:33.762Z,15.33
2023-01-18T17:51:00.518Z,16.70
2023-01-18T17:53:27.286Z,18.87
2023-01-18T17:55:53.880Z,14.63
2023-01-18T17:58:20.519Z,14.63
2023-01-18T18:00:47.183Z,14.83
2023-01-18T18:03:13.942Z,16.87
2023-01-18T18:05:40.575Z,15.53
2023-01-18T18:08:07.710Z,12.37
2023-01-18T18:10:34.333Z,16.20
2023-01-18T18:13:01.385Z,15.03
2023-01-18T18:15:28.246Z,13.87
2023-01-18T18:17:54.911Z,14.60
2023-01-18T18:20:22.728Z,14.80
2023-01-18T18:22:49.691Z,12.43
2023-01-18T18:25:16.409Z,15.97
2023-01-18T18:27:46.470Z,16.03
2023-01-18T18:30:14.370Z,14.33
2023-01-18T18:32:40.962Z,15.17
2023-01-18T18:35:23.165Z,13.63
2023-01-18T18:37:51.220Z,13.87
2023-01-18T18:40:18.774Z,13.93
2023-01-18T18:42:56.382Z,14.23
2023-01-18T18:45:27.950Z,13.70
2023-01-18T18:47:54.589Z,15.23
2023-01-18T18:50:21.254Z,13.73
2023-01-18T18:52:50.694Z,15.00
2023-01-18T18:55:17.497Z,14.03
2023-01-18T18:57:44.208Z,13.17
2023-01-18T19:00:11.503Z,12.40
2023-01-18T19:02:38.184Z,15.20
2023-01-18T19:05:05.952Z,15.13
2023-01-18T19:07:34.737Z,15.67
2023-01-18T19:10:01.481Z,12.80
2023-01-18T19:12:28.099Z,11.53
2023-01-18T19:14:54.725Z,12.23
2023-01-18T19:17:30.281Z,12.63
2023-01-18T19:20:10.044Z,13.27
2023-01-18T19:22:40.033Z,16.90
2023-01-18T19:25:07.317Z,16.50
2023-01-18T19:27:34.175Z,12.57
2023-01-18T19:30:03.170Z,13.20
2023-01-18T19:32:29.785Z,13.93
2023-01-18T19:34:56.357Z,12.53
2023-01-18T19:37:22.997Z,14.67
2023-01-18T19:39:49.912Z,20.33
2023-01-18T19:42:16.518Z,15.03
2023-01-18T19:44:43.342Z,12.43
2023-01-18T19:47:09.984Z,16.87
2023-01-18T19:49:36.630Z,14.07
2023-01-18T19:52:03.315Z,15.83
2023-01-18T19:54:29.892Z,15.63
2023-01-18T19:56:56.476Z,18.10
2023-01-18T19:59:23.100Z,13.80
2023-01-18T20:01:51.609Z,16.17
2023-01-18T20:04:18.373Z,17.20
2023-01-18T20:06:46.157Z,12.67
2023-01-18T20:09:19.847Z,13.20
2023-01-18T20:11:48.651Z,13.10
2023-01-18T20:14:15.536Z,11.63
2023-01-18T20:16:43.902Z,16.23
2023-01-18T20:19:13.202Z,12.37
2023-01-18T20:21:39.804Z,10.73
2023-01-18T20:24:06.739Z,12.43
2023-01-18T20:26:37.293Z,12.83
2023-01-18T20:29:08.360Z,12.37
2023-01-18T20:31:36.934Z,12.90
2023-01-18T20:34:04.616Z,14.87
2023-01-18T20:36:31.482Z,15.47
2023-01-18T20:38:58.470Z,13.40
2023-01-18T20:41:25.062Z,13.70
2023-01-18T20:43:52.024Z,11.17
2023-01-18T20:46:18.640Z,11.80
2023-01-18T20:48:45.273Z,15.13
2023-01-18T20:51:12.016Z,11.43
2023-01-18T20:53:38.649Z,11.67
2023-01-18T20:56:11.952Z,13.43
2023-01-18T20:58:50.208Z,14.37
2023-01-18T21:01:17.241Z,13.20
2023-01-18T21:03:53.094Z,12.70
2023-01-18T21:06:19.907Z,15.17
2023-01-18T21:08:46.594Z,14.80
2023-01-18T21:11:14.964Z,13.90
2023-01-18T21:13:41.612Z,11.70
2023-01-18T21:16:08.379Z,13.50
2023-01-18T21:18:37.496Z,14.70
2023-01-18T21:21:04.721Z,15.40
2023-01-18T21:23:39.351Z,10.93
2023-01-18T21:26:08.356Z,13.33
2023-01-18T21:28:35.126Z,13.33
2023-01-18T21:31:02.571Z,19.23
2023-01-18T21:33:29.550Z,19.30
2023-01-18T21:36:01.895Z,12.90
2023-01-18T21:38:29.523Z,12.07
2023-01-18T21:40:56.216Z,14.20
2023-01-18T21:43:41.427Z,12.83
2023-01-18T21:46:10.923Z,10.37
2023-01-18T21:48:37.623Z,10.80
2023-01-18T21:51:23.956Z,12.47
2023-01-18T21:54:09.252Z,16.40
2023-01-18T21:56:38.709Z,11.27
2023-01-18T21:59:05.303Z,13.27
2023-01-18T22:01:34.858Z,10.47
2023-01-18T22:04:22.589Z,11.70
2023-01-18T22:06:49.758Z,10.77
2023-01-18T22:09:16.839Z,15.00
2023-01-18T22:11:44.005Z,13.17
2023-01-18T22:14:10.872Z,13.43
2023-01-18T22:16:37.998Z,10.87
2023-01-18T22:19:05.013Z,12.00
2023-01-18T22:21:32.451Z,11.40
2023-01-18T22:23:59.719Z,10.73
2023-01-18T22:26:28.878Z,12.67
2023-01-18T22:28:56.397Z,12.67
2023-01-18T22:31:23.152Z,12.90
2023-01-18T22:33:49.877Z,11.80
2023-01-18T22:36:16.786Z,12.10
2023-01-18T22:38:43.869Z,15.63
2023-01-18T22:41:12.896Z,13.17
2023-01-18T22:43:40.262Z,12.60
2023-01-18T22:46:08.564Z,12.23
2023-01-18T22:48:36.707Z,13.40
2023-01-18T22:51:05.292Z,12.83
2023-01-18T22:53:33.308Z,12.93
2023-01-18T22:56:05.162Z,13.83
2023-01-18T22:58:32.066Z,12.73
2023-01-18T23:00:58.999Z,14.93
2023-01-18T23:03:25.800Z,14.37
2023-01-18T23:05:57.485Z,13.97
2023-01-18T23:08:44.435Z,19.30
2023-01-18T23:11:25.620Z,13.67
2023-01-18T23:14:14.008Z,13.97
2023-01-18T23:16:59.465Z,10.80
2023-01-18T23:19:28.212Z,12.83
2023-01-18T23:21:56.131Z,14.27
2023-01-18T23:24:23.217Z,14.40
2023-01-18T23:26:50.687Z,13.57
2023-01-18T23:29:17.965Z,11.10
2023-01-18T23:31:44.563Z,15.57
2023-01-18T23:34:11.213Z,13.03
2023-01-18T23:36:37.848Z,14.13
2023-01-18T23:39:23.020Z,12.13
2023-01-18T23:42:08.476Z,14.77
2023-01-18T23:44:53.914Z,13.10
2023-01-18T23:47:39.492Z,14.77
2023-01-18T23:50:28.388Z,12.97
2023-01-18T23:53:13.791Z,13.83
2023-01-18T23:55:41.364Z,10.37
2023-01-18T23:58:08.064Z,13.97
